Terminal Aerodrome Forecast
Issued by NWS

Home | Current Version | Previous Version | Text Only | Print | Product List | Glossary On
Versions: 1 2 3 4 5 6 7 8 9 10 11
000
FTUS42 KTAE 121720
TAFVLD
TAF
KVLD 121720Z 1218/1318 31010G20KT P6SM SKC
     FM130000 31004KT P6SM SKC
     FM131500 29006KT P6SM SKC=

USA.gov is the U.S. government's official web portal to all federal, state and local government web resources and services.